sensor_id;sensor_type;location;lat;lon;timestamp;temperature;humidity
37242;DHT22;23135;51.078;12.108;2022-10-31T00:01:34;11.80;99.90
37242;DHT22;23135;51.078;12.108;2022-10-31T00:03:59;11.80;99.90
37242;DHT22;23135;51.078;12.108;2022-10-31T00:06:25;11.80;99.90
37242;DHT22;23135;51.078;12.108;2022-10-31T00:08:56;11.70;99.90
37242;DHT22;23135;51.078;12.108;2022-10-31T00:11:22;11.70;99.90
37242;DHT22;23135;51.078;12.108;2022-10-31T00:13:48;11.70;99.90
37242;DHT22;23135;51.078;12.108;2022-10-31T00:16:18;11.60;99.90
37242;DHT22;23135;51.078;12.108;2022-10-31T00:18:47;11.60;99.90
37242;DHT22;23135;51.078;12.108;2022-10-31T00:21:12;11.60;99.90
37242;DHT22;23135;51.078;12.108;2022-10-31T00:23:39;11.50;99.90
37242;DHT22;23135;51.078;12.108;2022-10-31T00:26:05;11.50;99.90
37242;DHT22;23135;51.078;12.108;2022-10-31T00:28:32;11.50;99.90
37242;DHT22;23135;51.078;12.108;2022-10-31T00:30:59;11.60;99.90
37242;DHT22;23135;51.078;12.108;2022-10-31T00:33:25;11.50;99.90
37242;DHT22;23135;51.078;12.108;2022-10-31T00:35:51;11.60;99.90
37242;DHT22;23135;51.078;12.108;2022-10-31T00:38:16;11.60;99.90
37242;DHT22;23135;51.078;12.108;2022-10-31T00:40:42;11.60;99.90
37242;DHT22;23135;51.078;12.108;2022-10-31T00:43:08;11.70;99.90
37242;DHT22;23135;51.078;12.108;2022-10-31T00:45:33;11.70;99.90
37242;DHT22;23135;51.078;12.108;2022-10-31T00:47:59;11.70;99.90
37242;DHT22;23135;51.078;12.108;2022-10-31T00:50:24;11.60;99.90
37242;DHT22;23135;51.078;12.108;2022-10-31T00:52:50;11.50;99.90
37242;DHT22;23135;51.078;12.108;2022-10-31T00:55:15;11.50;99.90
37242;DHT22;23135;51.078;12.108;2022-10-31T00:57:41;11.40;99.90
37242;DHT22;23135;51.078;12.108;2022-10-31T01:00:08;11.40;99.90
37242;DHT22;23135;51.078;12.108;2022-10-31T01:02:33;11.40;99.90
37242;DHT22;23135;51.078;12.108;2022-10-31T01:04:59;11.40;99.90
37242;DHT22;23135;51.078;12.108;2022-10-31T01:07:24;11.40;99.90
37242;DHT22;23135;51.078;12.108;2022-10-31T01:09:50;11.40;99.90
37242;DHT22;23135;51.078;12.108;2022-10-31T01:12:16;11.40;99.90
37242;DHT22;23135;51.078;12.108;2022-10-31T01:14:45;11.40;99.90
37242;DHT22;23135;51.078;12.108;2022-10-31T01:17:11;11.40;99.90
37242;DHT22;23135;51.078;12.108;2022-10-31T01:19:37;11.50;99.90
37242;DHT22;23135;51.078;12.108;2022-10-31T01:22:02;11.50;99.90
37242;DHT22;23135;51.078;12.108;2022-10-31T01:24:28;11.50;99.90
37242;DHT22;23135;51.078;12.108;2022-10-31T01:26:54;11.60;99.90
37242;DHT22;23135;51.078;12.108;2022-10-31T01:29:19;11.50;99.90
37242;DHT22;23135;51.078;12.108;2022-10-31T01:31:45;11.60;99.90
37242;DHT22;23135;51.078;12.108;2022-10-31T01:34:15;11.60;99.90
37242;DHT22;23135;51.078;12.108;2022-10-31T01:36:42;11.70;99.90
37242;DHT22;23135;51.078;12.108;2022-10-31T01:39:11;11.70;99.90
37242;DHT22;23135;51.078;12.108;2022-10-31T01:41:40;11.80;99.90
37242;DHT22;23135;51.078;12.108;2022-10-31T01:49:23;11.80;99.90
37242;DHT22;23135;51.078;12.108;2022-10-31T01:51:55;11.90;99.90
37242;DHT22;23135;51.078;12.108;2022-10-31T01:54:25;11.90;99.90
37242;DHT22;23135;51.078;12.108;2022-10-31T01:56:54;11.90;99.90
37242;DHT22;23135;51.078;12.108;2022-10-31T01:59:22;11.90;99.90
37242;DHT22;23135;51.078;12.108;2022-10-31T02:01:50;11.90;99.90
37242;DHT22;23135;51.078;12.108;2022-10-31T02:04:18;11.80;99.90
37242;DHT22;23135;51.078;12.108;2022-10-31T02:06:55;11.80;99.90
37242;DHT22;23135;51.078;12.108;2022-10-31T02:09:23;11.70;99.90
37242;DHT22;23135;51.078;12.108;2022-10-31T02:11:55;11.60;99.90
37242;DHT22;23135;51.078;12.108;2022-10-31T02:14:24;11.40;99.90
37242;DHT22;23135;51.078;12.108;2022-10-31T02:16:50;11.40;99.90
37242;DHT22;23135;51.078;12.108;2022-10-31T02:22:30;11.40;99.90
37242;DHT22;23135;51.078;12.108;2022-10-31T02:25:16;11.50;99.90
37242;DHT22;23135;51.078;12.108;2022-10-31T02:33:35;11.70;99.90
37242;DHT22;23135;51.078;12.108;2022-10-31T02:44:41;11.50;99.90
37242;DHT22;23135;51.078;12.108;2022-10-31T02:47:18;11.50;99.90
37242;DHT22;23135;51.078;12.108;2022-10-31T02:49:56;11.50;99.90
37242;DHT22;23135;51.078;12.108;2022-10-31T02:52:26;11.40;99.90
37242;DHT22;23135;51.078;12.108;2022-10-31T02:54:52;11.30;99.90
37242;DHT22;23135;51.078;12.108;2022-10-31T02:57:29;11.30;99.90
37242;DHT22;23135;51.078;12.108;2022-10-31T03:00:00;11.20;99.90
37242;DHT22;23135;51.078;12.108;2022-10-31T03:08:06;11.00;99.90
37242;DHT22;23135;51.078;12.108;2022-10-31T03:19:12;10.90;99.90
37242;DHT22;23135;51.078;12.108;2022-10-31T03:21:46;10.80;99.90
37242;DHT22;23135;51.078;12.108;2022-10-31T03:24:13;10.70;99.90
37242;DHT22;23135;51.078;12.108;2022-10-31T03:26:47;10.60;99.90
37242;DHT22;23135;51.078;12.108;2022-10-31T03:29:16;10.50;99.90
37242;DHT22;23135;51.078;12.108;2022-10-31T03:31:53;10.40;99.90
37242;DHT22;23135;51.078;12.108;2022-10-31T03:34:21;10.30;99.90
37242;DHT22;23135;51.078;12.108;2022-10-31T03:36:50;10.30;99.90
37242;DHT22;23135;51.078;12.108;2022-10-31T03:39:19;10.30;99.90
37242;DHT22;23135;51.078;12.108;2022-10-31T03:41:52;10.30;99.90
37242;DHT22;23135;51.078;12.108;2022-10-31T03:44:20;10.30;99.90
37242;DHT22;23135;51.078;12.108;2022-10-31T03:46:47;10.30;99.90
37242;DHT22;23135;51.078;12.108;2022-10-31T03:49:13;10.30;99.90
37242;DHT22;23135;51.078;12.108;2022-10-31T03:51:41;10.30;99.90
37242;DHT22;23135;51.078;12.108;2022-10-31T03:59:32;10.00;99.90
37242;DHT22;23135;51.078;12.108;2022-10-31T04:02:02;10.10;99.90
37242;DHT22;23135;51.078;12.108;2022-10-31T04:04:29;10.10;99.90
37242;DHT22;23135;51.078;12.108;2022-10-31T04:06:56;10.10;99.90
37242;DHT22;23135;51.078;12.108;2022-10-31T04:09:25;10.10;99.90
37242;DHT22;23135;51.078;12.108;2022-10-31T04:11:53;10.00;99.90
37242;DHT22;23135;51.078;12.108;2022-10-31T04:14:20;10.00;99.90
37242;DHT22;23135;51.078;12.108;2022-10-31T04:16:47;10.00;99.90
37242;DHT22;23135;51.078;12.108;2022-10-31T04:19:14;9.90;99.90
37242;DHT22;23135;51.078;12.108;2022-10-31T04:21:40;9.90;99.90
37242;DHT22;23135;51.078;12.108;2022-10-31T04:24:09;9.90;99.90
37242;DHT22;23135;51.078;12.108;2022-10-31T04:26:34;9.80;99.90
37242;DHT22;23135;51.078;12.108;2022-10-31T04:29:00;9.80;99.90
37242;DHT22;23135;51.078;12.108;2022-10-31T04:31:26;9.70;99.90
37242;DHT22;23135;51.078;12.108;2022-10-31T04:33:51;9.60;99.90
37242;DHT22;23135;51.078;12.108;2022-10-31T04:36:17;9.60;99.90
37242;DHT22;23135;51.078;12.108;2022-10-31T04:38:42;9.50;99.90
37242;DHT22;23135;51.078;12.108;2022-10-31T04:41:08;9.50;99.90
37242;DHT22;23135;51.078;12.108;2022-10-31T04:43:34;9.50;99.90
37242;DHT22;23135;51.078;12.108;2022-10-31T04:45:59;9.50;99.90
37242;DHT22;23135;51.078;12.108;2022-10-31T04:48:25;9.40;99.90
37242;DHT22;23135;51.078;12.108;2022-10-31T04:50:51;9.50;99.90
37242;DHT22;23135;51.078;12.108;2022-10-31T04:53:16;9.50;99.90
37242;DHT22;23135;51.078;12.108;2022-10-31T04:55:42;9.60;99.90
37242;DHT22;23135;51.078;12.108;2022-10-31T04:58:07;9.60;99.90
37242;DHT22;23135;51.078;12.108;2022-10-31T05:00:33;9.60;99.90
37242;DHT22;23135;51.078;12.108;2022-10-31T05:02:59;9.60;99.90
37242;DHT22;23135;51.078;12.108;2022-10-31T05:05:26;9.60;99.90
37242;DHT22;23135;51.078;12.108;2022-10-31T05:07:53;9.70;99.90
37242;DHT22;23135;51.078;12.108;2022-10-31T05:10:21;9.60;99.90
37242;DHT22;23135;51.078;12.108;2022-10-31T05:15:13;9.50;99.90
37242;DHT22;23135;51.078;12.108;2022-10-31T05:17:39;9.60;99.90
37242;DHT22;23135;51.078;12.108;2022-10-31T05:20:05;9.60;99.90
37242;DHT22;23135;51.078;12.108;2022-10-31T05:22:30;9.60;99.90
37242;DHT22;23135;51.078;12.108;2022-10-31T05:24:56;9.60;99.90
37242;DHT22;23135;51.078;12.108;2022-10-31T05:27:21;9.50;99.90
37242;DHT22;23135;51.078;12.108;2022-10-31T05:29:47;9.50;99.90
37242;DHT22;23135;51.078;12.108;2022-10-31T05:32:13;9.50;99.90
37242;DHT22;23135;51.078;12.108;2022-10-31T05:34:38;9.40;99.90
37242;DHT22;23135;51.078;12.108;2022-10-31T05:37:04;9.40;99.90
37242;DHT22;23135;51.078;12.108;2022-10-31T05:39:29;9.30;99.90
37242;DHT22;23135;51.078;12.108;2022-10-31T05:41:55;9.20;99.90
37242;DHT22;23135;51.078;12.108;2022-10-31T05:44:21;9.20;99.90
37242;DHT22;23135;51.078;12.108;2022-10-31T05:46:46;9.20;99.90
37242;DHT22;23135;51.078;12.108;2022-10-31T05:49:12;9.30;99.90
37242;DHT22;23135;51.078;12.108;2022-10-31T05:51:38;9.30;99.90
37242;DHT22;23135;51.078;12.108;2022-10-31T05:54:04;9.30;99.90
37242;DHT22;23135;51.078;12.108;2022-10-31T05:56:29;9.20;99.90
37242;DHT22;23135;51.078;12.108;2022-10-31T05:58:55;9.20;99.90
37242;DHT22;23135;51.078;12.108;2022-10-31T06:01:21;9.20;99.90
37242;DHT22;23135;51.078;12.108;2022-10-31T06:03:46;9.20;99.90
37242;DHT22;23135;51.078;12.108;2022-10-31T06:06:12;9.10;99.90
37242;DHT22;23135;51.078;12.108;2022-10-31T06:08:38;9.10;99.90
37242;DHT22;23135;51.078;12.108;2022-10-31T06:11:03;9.10;99.90
37242;DHT22;23135;51.078;12.108;2022-10-31T06:13:29;9.10;99.90
37242;DHT22;23135;51.078;12.108;2022-10-31T06:15:55;9.20;99.90
37242;DHT22;23135;51.078;12.108;2022-10-31T06:18:20;9.10;99.90
37242;DHT22;23135;51.078;12.108;2022-10-31T06:20:46;9.10;99.90
37242;DHT22;23135;51.078;12.108;2022-10-31T06:23:11;9.10;99.90
37242;DHT22;23135;51.078;12.108;2022-10-31T06:25:37;9.20;99.90
37242;DHT22;23135;51.078;12.108;2022-10-31T06:28:03;9.30;99.90
37242;DHT22;23135;51.078;12.108;2022-10-31T06:30:28;9.40;99.90
37242;DHT22;23135;51.078;12.108;2022-10-31T06:32:54;9.40;99.90
37242;DHT22;23135;51.078;12.108;2022-10-31T06:35:20;9.40;99.90
37242;DHT22;23135;51.078;12.108;2022-10-31T06:37:53;9.50;99.90
37242;DHT22;23135;51.078;12.108;2022-10-31T06:40:19;9.40;99.90
37242;DHT22;23135;51.078;12.108;2022-10-31T06:42:44;9.40;99.90
37242;DHT22;23135;51.078;12.108;2022-10-31T06:45:10;9.50;99.90
37242;DHT22;23135;51.078;12.108;2022-10-31T06:47:36;9.60;99.90
37242;DHT22;23135;51.078;12.108;2022-10-31T06:50:01;9.70;99.90
37242;DHT22;23135;51.078;12.108;2022-10-31T06:52:27;9.70;99.90
37242;DHT22;23135;51.078;12.108;2022-10-31T06:54:53;9.70;99.90
37242;DHT22;23135;51.078;12.108;2022-10-31T06:57:18;9.80;99.90
37242;DHT22;23135;51.078;12.108;2022-10-31T06:59:44;9.90;99.90
37242;DHT22;23135;51.078;12.108;2022-10-31T07:02:10;9.80;99.90
37242;DHT22;23135;51.078;12.108;2022-10-31T07:04:36;9.80;99.90
37242;DHT22;23135;51.078;12.108;2022-10-31T07:07:02;9.90;99.90
37242;DHT22;23135;51.078;12.108;2022-10-31T07:09:27;9.90;99.90
37242;DHT22;23135;51.078;12.108;2022-10-31T07:11:53;10.00;99.90
37242;DHT22;23135;51.078;12.108;2022-10-31T07:14:19;10.10;99.90
37242;DHT22;23135;51.078;12.108;2022-10-31T07:16:49;10.20;99.90
37242;DHT22;23135;51.078;12.108;2022-10-31T07:19:15;10.20;99.90
37242;DHT22;23135;51.078;12.108;2022-10-31T07:21:41;10.30;99.90
37242;DHT22;23135;51.078;12.108;2022-10-31T07:24:07;10.40;99.90
37242;DHT22;23135;51.078;12.108;2022-10-31T07:26:32;10.50;99.90
37242;DHT22;23135;51.078;12.108;2022-10-31T07:28:58;10.60;99.90
37242;DHT22;23135;51.078;12.108;2022-10-31T07:31:24;10.70;99.90
37242;DHT22;23135;51.078;12.108;2022-10-31T07:33:50;10.80;99.90
37242;DHT22;23135;51.078;12.108;2022-10-31T07:36:16;11.00;99.90
37242;DHT22;23135;51.078;12.108;2022-10-31T07:38:42;11.10;99.90
37242;DHT22;23135;51.078;12.108;2022-10-31T07:41:07;11.30;99.90
37242;DHT22;23135;51.078;12.108;2022-10-31T07:43:33;11.40;99.90
37242;DHT22;23135;51.078;12.108;2022-10-31T07:45:59;11.40;99.90
37242;DHT22;23135;51.078;12.108;2022-10-31T07:48:25;11.60;99.90
37242;DHT22;23135;51.078;12.108;2022-10-31T07:50:51;11.70;99.90
37242;DHT22;23135;51.078;12.108;2022-10-31T07:53:17;11.90;99.90
37242;DHT22;23135;51.078;12.108;2022-10-31T07:55:43;12.30;99.90
37242;DHT22;23135;51.078;12.108;2022-10-31T07:58:13;12.70;99.90
37242;DHT22;23135;51.078;12.108;2022-10-31T08:00:41;13.00;99.90
37242;DHT22;23135;51.078;12.108;2022-10-31T08:03:16;13.10;99.90
37242;DHT22;23135;51.078;12.108;2022-10-31T08:05:42;13.30;99.90
37242;DHT22;23135;51.078;12.108;2022-10-31T08:08:10;13.30;99.90
37242;DHT22;23135;51.078;12.108;2022-10-31T08:10:36;13.40;99.90
37242;DHT22;23135;51.078;12.108;2022-10-31T08:13:07;13.40;99.90
37242;DHT22;23135;51.078;12.108;2022-10-31T08:15:34;13.40;99.90
37242;DHT22;23135;51.078;12.108;2022-10-31T08:18:02;13.50;99.90
37242;DHT22;23135;51.078;12.108;2022-10-31T08:20:28;13.70;99.90
37242;DHT22;23135;51.078;12.108;2022-10-31T08:22:59;13.80;99.90
37242;DHT22;23135;51.078;12.108;2022-10-31T08:25:26;13.90;99.90
37242;DHT22;23135;51.078;12.108;2022-10-31T08:27:53;14.00;99.90
37242;DHT22;23135;51.078;12.108;2022-10-31T08:30:21;14.10;99.90
37242;DHT22;23135;51.078;12.108;2022-10-31T08:32:47;14.30;99.90
37242;DHT22;23135;51.078;12.108;2022-10-31T08:35:21;14.40;99.90
37242;DHT22;23135;51.078;12.108;2022-10-31T08:37:55;14.60;99.90
37242;DHT22;23135;51.078;12.108;2022-10-31T08:40:22;14.70;99.90
37242;DHT22;23135;51.078;12.108;2022-10-31T08:42:54;14.90;99.90
37242;DHT22;23135;51.078;12.108;2022-10-31T08:45:20;15.10;99.90
37242;DHT22;23135;51.078;12.108;2022-10-31T08:47:45;15.30;99.90
37242;DHT22;23135;51.078;12.108;2022-10-31T08:50:11;15.40;99.90
37242;DHT22;23135;51.078;12.108;2022-10-31T08:52:37;15.40;99.90
37242;DHT22;23135;51.078;12.108;2022-10-31T08:55:02;15.50;99.90
37242;DHT22;23135;51.078;12.108;2022-10-31T08:57:28;15.70;99.90
37242;DHT22;23135;51.078;12.108;2022-10-31T08:59:53;15.90;99.90
37242;DHT22;23135;51.078;12.108;2022-10-31T09:02:19;15.90;99.90
37242;DHT22;23135;51.078;12.108;2022-10-31T09:04:45;16.00;99.90
37242;DHT22;23135;51.078;12.108;2022-10-31T09:07:10;16.30;99.90
37242;DHT22;23135;51.078;12.108;2022-10-31T09:09:36;16.40;99.90
37242;DHT22;23135;51.078;12.108;2022-10-31T09:12:01;16.50;99.90
37242;DHT22;23135;51.078;12.108;2022-10-31T09:14:27;16.50;99.90
37242;DHT22;23135;51.078;12.108;2022-10-31T09:16:53;16.70;99.90
37242;DHT22;23135;51.078;12.108;2022-10-31T09:19:18;16.80;99.90
37242;DHT22;23135;51.078;12.108;2022-10-31T09:21:44;17.00;99.90
37242;DHT22;23135;51.078;12.108;2022-10-31T09:24:09;17.10;99.90
37242;DHT22;23135;51.078;12.108;2022-10-31T09:26:35;17.10;99.90
37242;DHT22;23135;51.078;12.108;2022-10-31T09:29:01;17.10;99.90
37242;DHT22;23135;51.078;12.108;2022-10-31T09:31:27;17.20;99.90
37242;DHT22;23135;51.078;12.108;2022-10-31T09:33:53;17.20;99.90
37242;DHT22;23135;51.078;12.108;2022-10-31T09:36:19;17.40;99.90
37242;DHT22;23135;51.078;12.108;2022-10-31T09:38:45;17.50;99.90
37242;DHT22;23135;51.078;12.108;2022-10-31T09:42:07;17.60;99.90
37242;DHT22;23135;51.078;12.108;2022-10-31T09:44:26;17.70;99.90
37242;DHT22;23135;51.078;12.108;2022-10-31T09:52:34;18.10;99.90
37242;DHT22;23135;51.078;12.108;2022-10-31T09:55:05;18.20;99.90
37242;DHT22;23135;51.078;12.108;2022-10-31T09:57:36;18.20;99.90
37242;DHT22;23135;51.078;12.108;2022-10-31T10:00:06;18.20;99.90
37242;DHT22;23135;51.078;12.108;2022-10-31T10:02:37;18.20;99.90
37242;DHT22;23135;51.078;12.108;2022-10-31T10:05:05;18.40;99.90
37242;DHT22;23135;51.078;12.108;2022-10-31T10:07:54;18.40;99.90
37242;DHT22;23135;51.078;12.108;2022-10-31T10:16:47;18.80;99.90
37242;DHT22;23135;51.078;12.108;2022-10-31T10:18:46;18.90;99.90
37242;DHT22;23135;51.078;12.108;2022-10-31T10:21:32;19.00;99.90
37242;DHT22;23135;51.078;12.108;2022-10-31T10:24:22;19.00;99.90
37242;DHT22;23135;51.078;12.108;2022-10-31T10:27:10;19.00;99.90
37242;DHT22;23135;51.078;12.108;2022-10-31T10:32:27;19.00;99.90
37242;DHT22;23135;51.078;12.108;2022-10-31T10:37:39;19.10;99.90
37242;DHT22;23135;51.078;12.108;2022-10-31T10:40:25;19.00;99.90
37242;DHT22;23135;51.078;12.108;2022-10-31T10:43:19;19.10;99.90
37242;DHT22;23135;51.078;12.108;2022-10-31T10:46:06;19.10;99.90
37242;DHT22;23135;51.078;12.108;2022-10-31T10:59:43;19.10;99.90
37242;DHT22;23135;51.078;12.108;2022-10-31T11:02:31;19.10;99.90
37242;DHT22;23135;51.078;12.108;2022-10-31T11:04:58;19.10;99.90
37242;DHT22;23135;51.078;12.108;2022-10-31T11:07:25;19.10;99.90
37242;DHT22;23135;51.078;12.108;2022-10-31T11:10:06;19.20;99.90
37242;DHT22;23135;51.078;12.108;2022-10-31T11:12:40;19.10;99.90
37242;DHT22;23135;51.078;12.108;2022-10-31T11:15:22;19.10;99.90
37242;DHT22;23135;51.078;12.108;2022-10-31T11:17:50;19.20;99.90
37242;DHT22;23135;51.078;12.108;2022-10-31T11:22:44;19.20;99.90
37242;DHT22;23135;51.078;12.108;2022-10-31T11:28:07;19.40;99.90
37242;DHT22;23135;51.078;12.108;2022-10-31T11:30:57;19.40;99.90
37242;DHT22;23135;51.078;12.108;2022-10-31T11:33:34;19.40;99.90
37242;DHT22;23135;51.078;12.108;2022-10-31T11:36:20;19.60;99.90
37242;DHT22;23135;51.078;12.108;2022-10-31T11:38:46;19.60;99.90
37242;DHT22;23135;51.078;12.108;2022-10-31T11:41:41;19.60;99.90
37242;DHT22;23135;51.078;12.108;2022-10-31T11:44:24;19.70;99.90
37242;DHT22;23135;51.078;12.108;2022-10-31T11:46:54;19.80;99.90
37242;DHT22;23135;51.078;12.108;2022-10-31T11:51:52;19.90;99.90
37242;DHT22;23135;51.078;12.108;2022-10-31T11:54:35;19.80;99.90
37242;DHT22;23135;51.078;12.108;2022-10-31T11:57:03;19.90;99.90
37242;DHT22;23135;51.078;12.108;2022-10-31T11:59:31;20.00;99.90
37242;DHT22;23135;51.078;12.108;2022-10-31T12:02:00;20.00;99.90
37242;DHT22;23135;51.078;12.108;2022-10-31T12:04:37;20.00;99.90
37242;DHT22;23135;51.078;12.108;2022-10-31T12:07:05;20.20;99.90
37242;DHT22;23135;51.078;12.108;2022-10-31T12:09:36;20.10;99.90
37242;DHT22;23135;51.078;12.108;2022-10-31T12:23:43;20.50;99.90
37242;DHT22;23135;51.078;12.108;2022-10-31T12:39:33;21.00;99.90
37242;DHT22;23135;51.078;12.108;2022-10-31T12:50:31;20.50;99.90
37242;DHT22;23135;51.078;12.108;2022-10-31T12:54:05;20.40;99.90
37242;DHT22;23135;51.078;12.108;2022-10-31T12:56:28;20.20;99.90
37242;DHT22;23135;51.078;12.108;2022-10-31T12:59:01;19.90;99.90
37242;DHT22;23135;51.078;12.108;2022-10-31T13:01:34;19.80;99.90
37242;DHT22;23135;51.078;12.108;2022-10-31T13:04:15;19.90;99.90
37242;DHT22;23135;51.078;12.108;2022-10-31T13:06:48;20.10;99.90
37242;DHT22;23135;51.078;12.108;2022-10-31T13:09:23;19.90;99.90
37242;DHT22;23135;51.078;12.108;2022-10-31T13:11:58;19.90;99.90
37242;DHT22;23135;51.078;12.108;2022-10-31T13:14:39;19.80;99.90
37242;DHT22;23135;51.078;12.108;2022-10-31T13:17:06;19.70;99.90
37242;DHT22;23135;51.078;12.108;2022-10-31T13:19:38;19.60;99.90
37242;DHT22;23135;51.078;12.108;2022-10-31T13:22:07;19.50;99.90
37242;DHT22;23135;51.078;12.108;2022-10-31T13:24:45;19.40;99.90
37242;DHT22;23135;51.078;12.108;2022-10-31T13:27:22;19.30;99.90
37242;DHT22;23135;51.078;12.108;2022-10-31T13:32:27;19.10;99.90
37242;DHT22;23135;51.078;12.108;2022-10-31T13:34:56;19.00;99.90
37242;DHT22;23135;51.078;12.108;2022-10-31T13:45:24;18.60;99.90
37242;DHT22;23135;51.078;12.108;2022-10-31T13:48:17;18.40;99.90
37242;DHT22;23135;51.078;12.108;2022-10-31T13:50:55;18.40;99.90
37242;DHT22;23135;51.078;12.108;2022-10-31T13:53:22;18.30;99.90
37242;DHT22;23135;51.078;12.108;2022-10-31T13:56:22;18.20;99.90
37242;DHT22;23135;51.078;12.108;2022-10-31T13:59:02;18.10;99.90
37242;DHT22;23135;51.078;12.108;2022-10-31T14:01:29;18.10;99.90
37242;DHT22;23135;51.078;12.108;2022-10-31T14:04:15;18.00;99.90
37242;DHT22;23135;51.078;12.108;2022-10-31T14:07:08;17.90;99.90
37242;DHT22;23135;51.078;12.108;2022-10-31T14:12:43;17.70;99.90
37242;DHT22;23135;51.078;12.108;2022-10-31T14:15:19;17.70;99.90
37242;DHT22;23135;51.078;12.108;2022-10-31T14:22:41;17.40;99.90
37242;DHT22;23135;51.078;12.108;2022-10-31T14:25:30;17.30;99.90
37242;DHT22;23135;51.078;12.108;2022-10-31T14:27:57;17.30;99.90
37242;DHT22;23135;51.078;12.108;2022-10-31T14:30:26;17.20;99.90
37242;DHT22;23135;51.078;12.108;2022-10-31T14:32:55;17.10;99.90
37242;DHT22;23135;51.078;12.108;2022-10-31T14:35:27;17.00;99.90
37242;DHT22;23135;51.078;12.108;2022-10-31T14:38:15;17.00;99.90
37242;DHT22;23135;51.078;12.108;2022-10-31T14:44:12;16.80;99.90
37242;DHT22;23135;51.078;12.108;2022-10-31T14:47:02;16.70;99.90
37242;DHT22;23135;51.078;12.108;2022-10-31T14:52:29;16.50;99.90
37242;DHT22;23135;51.078;12.108;2022-10-31T14:54:56;16.50;99.90
37242;DHT22;23135;51.078;12.108;2022-10-31T14:57:27;16.40;99.90
37242;DHT22;23135;51.078;12.108;2022-10-31T14:59:59;16.40;99.90
37242;DHT22;23135;51.078;12.108;2022-10-31T15:04:56;16.20;99.90
37242;DHT22;23135;51.078;12.108;2022-10-31T15:07:25;16.20;99.90
37242;DHT22;23135;51.078;12.108;2022-10-31T15:10:03;16.10;99.90
37242;DHT22;23135;51.078;12.108;2022-10-31T15:12:31;16.00;99.90
37242;DHT22;23135;51.078;12.108;2022-10-31T15:14:58;16.00;99.90
37242;DHT22;23135;51.078;12.108;2022-10-31T15:17:35;15.90;99.90
37242;DHT22;23135;51.078;12.108;2022-10-31T15:20:01;15.90;99.90
37242;DHT22;23135;51.078;12.108;2022-10-31T15:22:29;15.80;99.90
37242;DHT22;23135;51.078;12.108;2022-10-31T15:24:56;15.80;99.90
37242;DHT22;23135;51.078;12.108;2022-10-31T15:27:23;15.70;99.90
37242;DHT22;23135;51.078;12.108;2022-10-31T15:29:50;15.60;99.90
37242;DHT22;23135;51.078;12.108;2022-10-31T15:32:26;15.50;99.90
37242;DHT22;23135;51.078;12.108;2022-10-31T15:34:54;15.40;99.90
37242;DHT22;23135;51.078;12.108;2022-10-31T15:37:22;15.40;99.90
37242;DHT22;23135;51.078;12.108;2022-10-31T15:39:50;15.40;99.90
37242;DHT22;23135;51.078;12.108;2022-10-31T15:42:21;15.30;99.90
37242;DHT22;23135;51.078;12.108;2022-10-31T15:44:49;15.20;99.90
37242;DHT22;23135;51.078;12.108;2022-10-31T15:47:17;15.10;99.90
37242;DHT22;23135;51.078;12.108;2022-10-31T15:49:55;15.00;99.90
37242;DHT22;23135;51.078;12.108;2022-10-31T15:52:34;15.00;99.90
37242;DHT22;23135;51.078;12.108;2022-10-31T15:55:18;14.90;99.90
37242;DHT22;23135;51.078;12.108;2022-10-31T15:57:57;14.90;99.90
37242;DHT22;23135;51.078;12.108;2022-10-31T16:00:35;14.90;99.90
37242;DHT22;23135;51.078;12.108;2022-10-31T16:03:05;14.80;99.90
37242;DHT22;23135;51.078;12.108;2022-10-31T16:05:43;14.70;99.90
37242;DHT22;23135;51.078;12.108;2022-10-31T16:10:52;14.50;99.90
37242;DHT22;23135;51.078;12.108;2022-10-31T16:13:23;14.40;99.90
37242;DHT22;23135;51.078;12.108;2022-10-31T16:16:01;14.30;99.90
37242;DHT22;23135;51.078;12.108;2022-10-31T16:18:28;14.30;99.90
37242;DHT22;23135;51.078;12.108;2022-10-31T16:20:55;14.30;99.90
37242;DHT22;23135;51.078;12.108;2022-10-31T16:23:23;14.30;99.90
37242;DHT22;23135;51.078;12.108;2022-10-31T16:25:50;14.30;99.90
37242;DHT22;23135;51.078;12.108;2022-10-31T16:28:22;14.20;99.90
37242;DHT22;23135;51.078;12.108;2022-10-31T16:30:51;14.20;99.90
37242;DHT22;23135;51.078;12.108;2022-10-31T16:33:30;14.10;99.90
37242;DHT22;23135;51.078;12.108;2022-10-31T16:35:59;14.00;99.90
37242;DHT22;23135;51.078;12.108;2022-10-31T16:38:26;14.00;99.90
37242;DHT22;23135;51.078;12.108;2022-10-31T16:40:52;13.90;99.90
37242;DHT22;23135;51.078;12.108;2022-10-31T16:43:19;13.90;99.90
37242;DHT22;23135;51.078;12.108;2022-10-31T16:45:48;13.80;99.90
37242;DHT22;23135;51.078;12.108;2022-10-31T16:48:17;13.80;99.90
37242;DHT22;23135;51.078;12.108;2022-10-31T16:50:44;13.80;99.90
37242;DHT22;23135;51.078;12.108;2022-10-31T16:53:12;13.70;99.90
37242;DHT22;23135;51.078;12.108;2022-10-31T16:55:55;13.60;99.90
37242;DHT22;23135;51.078;12.108;2022-10-31T16:58:24;13.60;99.90
37242;DHT22;23135;51.078;12.108;2022-10-31T17:00:51;13.50;99.90
37242;DHT22;23135;51.078;12.108;2022-10-31T17:03:17;13.50;99.90
37242;DHT22;23135;51.078;12.108;2022-10-31T17:05:43;13.50;99.90
37242;DHT22;23135;51.078;12.108;2022-10-31T17:08:09;13.50;99.90
37242;DHT22;23135;51.078;12.108;2022-10-31T17:10:35;13.50;99.90
37242;DHT22;23135;51.078;12.108;2022-10-31T17:13:02;13.40;99.90
37242;DHT22;23135;51.078;12.108;2022-10-31T17:15:37;13.30;99.90
37242;DHT22;23135;51.078;12.108;2022-10-31T17:18:04;13.30;99.90
37242;DHT22;23135;51.078;12.108;2022-10-31T17:20:31;13.30;99.90
37242;DHT22;23135;51.078;12.108;2022-10-31T17:22:58;13.30;99.90
37242;DHT22;23135;51.078;12.108;2022-10-31T17:25:29;13.20;99.90
37242;DHT22;23135;51.078;12.108;2022-10-31T17:27:57;13.20;99.90
37242;DHT22;23135;51.078;12.108;2022-10-31T17:30:24;13.10;99.90
37242;DHT22;23135;51.078;12.108;2022-10-31T17:32:50;13.10;99.90
37242;DHT22;23135;51.078;12.108;2022-10-31T17:35:17;13.10;99.90
37242;DHT22;23135;51.078;12.108;2022-10-31T17:37:43;13.10;99.90
37242;DHT22;23135;51.078;12.108;2022-10-31T17:40:10;13.00;99.90
37242;DHT22;23135;51.078;12.108;2022-10-31T17:42:36;13.00;99.90
37242;DHT22;23135;51.078;12.108;2022-10-31T17:45:06;13.00;99.90
37242;DHT22;23135;51.078;12.108;2022-10-31T17:47:33;13.00;99.90
37242;DHT22;23135;51.078;12.108;2022-10-31T17:49:59;12.90;99.90
37242;DHT22;23135;51.078;12.108;2022-10-31T17:52:25;12.90;99.90
37242;DHT22;23135;51.078;12.108;2022-10-31T17:54:50;12.90;99.90
37242;DHT22;23135;51.078;12.108;2022-10-31T17:57:16;12.80;99.90
37242;DHT22;23135;51.078;12.108;2022-10-31T17:59:42;12.80;99.90